Time;durP1;ratioP1;P1;durP2;ratioP2;P2;SDS_P1;SDS_P2;PMS_P1;PMS_P2;Temp;Humidity;BMP_temperature;BMP_pressure;BME280_temperature;BME280_humidity;BME280_pressure;Samples;Min_cycle;Max_cycle;Signal;HPM_P1;HPM_P2
2023/03/30 00:02:17;;;;;;;32.65;15.43;;;;;;;;;;4784534;30;20055;-77
2023/03/30 00:05:04;;;;;;;26.20;14.18;;;;;;;;;;4784505;30;20055;-77
2023/03/30 00:07:49;;;;;;;54.33;21.20;;;;;;;;;;4782008;29;20059;-77
2023/03/30 00:10:37;;;;;;;44.40;20.67;;;;;;;;;;4764278;30;20437;-78
2023/03/30 00:13:23;;;;;;;50.15;20.90;;;;;;;;;;4783796;30;20059;-78
2023/03/30 00:16:12;;;;;;;45.10;20.42;;;;;;;;;;4784171;30;20505;-78
2023/03/30 00:18:57;;;;;;;40.55;18.85;;;;;;;;;;4784811;30;20046;-78
2023/03/30 00:21:44;;;;;;;37.38;17.02;;;;;;;;;;4785059;30;21250;-77
2023/03/30 00:24:29;;;;;;;43.53;18.00;;;;;;;;;;4786617;29;20393;-77
2023/03/30 00:27:15;;;;;;;38.13;17.33;;;;;;;;;;4801774;29;20492;-78
2023/03/30 00:30:01;;;;;;;36.38;16.08;;;;;;;;;;4801351;29;20440;-76
2023/03/30 00:32:46;;;;;;;28.83;11.73;;;;;;;;;;4801111;29;20055;-78
2023/03/30 00:35:34;;;;;;;25.40;11.90;;;;;;;;;;4801764;29;20055;-77
2023/03/30 00:38:20;;;;;;;24.33;11.60;;;;;;;;;;4801187;29;20055;-78
2023/03/30 00:41:05;;;;;;;26.20;12.15;;;;;;;;;;4801548;29;20054;-78
2023/03/30 00:44:27;;;;;;;26.00;13.10;;;;;;;;;;4799592;29;20054;-79
2023/03/30 00:47:15;;;;;;;25.80;12.35;;;;;;;;;;4801300;29;20046;-78
2023/03/30 00:50:04;;;;;;;30.85;13.95;;;;;;;;;;4801752;29;20043;-78
2023/03/30 00:52:53;;;;;;;29.80;13.57;;;;;;;;;;4800922;29;20051;-79
2023/03/30 00:55:39;;;;;;;27.90;14.07;;;;;;;;;;4799993;29;20058;-78
2023/03/30 00:58:25;;;;;;;32.40;14.25;;;;;;;;;;4801917;29;20059;-78
2023/03/30 01:01:17;;;;;;;36.20;14.23;;;;;;;;;;4801488;29;20485;-78
2023/03/30 01:04:04;;;;;;;38.60;16.88;;;;;;;;;;4802953;29;20408;-78
2023/03/30 01:06:51;;;;;;;26.05;13.27;;;;;;;;;;4805520;29;20042;-78
2023/03/30 01:09:36;;;;;;;24.27;11.95;;;;;;;;;;4805028;29;20058;-78
2023/03/30 01:12:21;;;;;;;24.70;12.52;;;;;;;;;;4803747;29;20046;-79
2023/03/30 01:15:07;;;;;;;30.38;15.40;;;;;;;;;;4804121;29;20504;-79
2023/03/30 01:18:11;;;;;;;26.98;13.30;;;;;;;;;;4804090;29;20059;-78
2023/03/30 01:21:42;;;;;;;27.35;14.30;;;;;;;;;;4796572;29;20054;-78
2023/03/30 01:25:01;;;;;;;20.45;10.60;;;;;;;;;;4706385;30;20053;-78
2023/03/30 01:28:10;;;;;;;20.75;10.73;;;;;;;;;;4786768;30;20043;-78
2023/03/30 01:31:26;;;;;;;25.17;12.18;;;;;;;;;;4786909;29;20521;-79
2023/03/30 01:34:18;;;;;;;26.33;14.07;;;;;;;;;;4787809;30;20051;-78
2023/03/30 01:37:35;;;;;;;26.05;13.60;;;;;;;;;;4787461;30;20040;-79
2023/03/30 01:40:40;;;;;;;28.33;13.15;;;;;;;;;;4785580;29;20055;-78
2023/03/30 01:43:49;;;;;;;32.17;13.82;;;;;;;;;;4787753;30;20047;-79
2023/03/30 01:46:46;;;;;;;25.50;12.98;;;;;;;;;;4787720;30;20040;-79
2023/03/30 01:49:47;;;;;;;26.05;12.98;;;;;;;;;;4787653;30;20409;-79
2023/03/30 01:52:43;;;;;;;22.92;12.48;;;;;;;;;;4786507;29;20493;-79
2023/03/30 01:55:56;;;;;;;27.80;12.85;;;;;;;;;;4787473;30;20052;-78
2023/03/30 01:58:53;;;;;;;28.33;13.48;;;;;;;;;;4780518;29;20059;-78
2023/03/30 02:01:41;;;;;;;22.77;11.55;;;;;;;;;;4787122;30;20055;-78
2023/03/30 02:04:30;;;;;;;25.77;12.10;;;;;;;;;;4784677;29;20051;-79
2023/03/30 02:07:21;;;;;;;18.10;8.82;;;;;;;;;;4786234;29;20476;-78
2023/03/30 02:10:08;;;;;;;17.90;9.60;;;;;;;;;;4785390;29;20051;-79
2023/03/30 02:12:55;;;;;;;17.20;9.00;;;;;;;;;;4765646;29;20063;-79
2023/03/30 02:15:44;;;;;;;17.35;9.18;;;;;;;;;;4781247;29;20055;-78
2023/03/30 02:18:29;;;;;;;23.33;10.00;;;;;;;;;;4793879;29;20051;-79
2023/03/30 02:21:15;;;;;;;21.33;9.73;;;;;;;;;;4789011;29;20047;-78
2023/03/30 02:24:03;;;;;;;20.42;9.35;;;;;;;;;;4782932;29;20051;-79
2023/03/30 02:26:51;;;;;;;16.90;8.55;;;;;;;;;;4783022;30;20051;-78
2023/03/30 02:29:40;;;;;;;19.80;9.82;;;;;;;;;;4783755;30;20055;-78
2023/03/30 02:32:30;;;;;;;19.92;9.23;;;;;;;;;;4772149;30;20047;-79
2023/03/30 02:35:25;;;;;;;22.20;9.93;;;;;;;;;;4785763;30;20055;-79
2023/03/30 02:38:11;;;;;;;;;;;;;;;;;;4778845;29;20051;-79
2023/03/30 02:41:17;;;;;;;17.92;9.50;;;;;;;;;;4778166;29;19918;-79
2023/03/30 02:44:12;;;;;;;18.48;9.32;;;;;;;;;;4778320;29;20055;-78
2023/03/30 02:47:06;;;;;;;17.75;9.00;;;;;;;;;;4778007;29;20044;-79
2023/03/30 02:49:58;;;;;;;13.23;7.20;;;;;;;;;;4771316;29;20051;-78
2023/03/30 02:52:56;;;;;;;14.48;8.25;;;;;;;;;;4777926;29;20043;-80
2023/03/30 02:56:13;;;;;;;16.30;7.63;;;;;;;;;;4777830;29;20055;-79
2023/03/30 02:59:16;;;;;;;14.10;7.47;;;;;;;;;;4777931;29;20481;-79
2023/03/30 03:02:10;;;;;;;11.10;5.95;;;;;;;;;;4777423;29;20039;-79
2023/03/30 03:04:55;;;;;;;11.05;5.65;;;;;;;;;;4771592;29;20043;-78
2023/03/30 03:08:04;;;;;;;12.98;5.70;;;;;;;;;;4790605;29;20039;-79
2023/03/30 03:10:50;;;;;;;11.77;5.63;;;;;;;;;;4777835;29;20059;-79
2023/03/30 03:13:36;;;;;;;12.52;6.47;;;;;;;;;;4777657;29;20059;-78
2023/03/30 03:16:22;;;;;;;16.05;7.72;;;;;;;;;;4778579;29;20485;-78
2023/03/30 03:19:28;;;;;;;12.98;7.20;;;;;;;;;;4792077;29;20059;-79
2023/03/30 03:22:14;;;;;;;13.60;7.70;;;;;;;;;;4778620;29;20043;-78
2023/03/30 03:25:01;;;;;;;19.63;8.32;;;;;;;;;;4784874;29;20405;-78
2023/03/30 03:28:05;;;;;;;19.38;8.75;;;;;;;;;;4804688;29;20489;-78
2023/03/30 03:31:04;;;;;;;35.15;14.23;;;;;;;;;;4804955;29;20421;-79
2023/03/30 03:33:51;;;;;;;23.30;11.00;;;;;;;;;;4803415;29;20055;-79
2023/03/30 03:36:44;;;;;;;23.63;11.07;;;;;;;;;;4802709;29;20059;-76
2023/03/30 03:39:30;;;;;;;28.48;14.05;;;;;;;;;;4803553;29;20055;-79
2023/03/30 03:42:22;;;;;;;38.25;16.95;;;;;;;;;;4801917;29;20050;-77
2023/03/30 03:45:18;;;;;;;32.28;14.57;;;;;;;;;;4788930;29;20043;-77
2023/03/30 03:48:09;;;;;;;30.77;15.35;;;;;;;;;;4801354;29;20051;-78
2023/03/30 03:51:06;;;;;;;22.70;11.80;;;;;;;;;;4801910;29;20054;-78
2023/03/30 03:53:52;;;;;;;20.48;10.55;;;;;;;;;;4801539;29;20054;-77
2023/03/30 03:56:38;;;;;;;25.30;12.20;;;;;;;;;;4801345;29;20058;-78
2023/03/30 03:59:24;;;;;;;19.08;10.07;;;;;;;;;;4802325;29;20054;-77
2023/03/30 04:02:09;;;;;;;13.48;7.72;;;;;;;;;;4801766;29;20051;-77
2023/03/30 04:04:56;;;;;;;14.40;6.15;;;;;;;;;;4802010;29;20059;-78
2023/03/30 04:07:45;;;;;;;22.60;8.63;;;;;;;;;;4802291;29;20039;-78
2023/03/30 04:10:31;;;;;;;21.80;8.70;;;;;;;;;;4801217;29;20050;-78
2023/03/30 04:13:43;;;;;;;30.80;10.48;;;;;;;;;;4802542;29;20042;-78
2023/03/30 04:16:47;;;;;;;41.58;16.08;;;;;;;;;;4802070;29;20054;-78
2023/03/30 04:20:04;;;;;;;25.20;13.32;;;;;;;;;;4807712;29;20416;-78
2023/03/30 04:23:08;;;;;;;33.90;13.15;;;;;;;;;;4801220;29;20050;-77
2023/03/30 04:26:16;;;;;;;22.13;11.00;;;;;;;;;;4801776;29;21769;-77
2023/03/30 04:29:07;;;;;;;42.75;18.90;;;;;;;;;;4801989;29;20050;-78
2023/03/30 04:32:33;;;;;;;90.07;42.75;;;;;;;;;;4756148;30;20044;-78
2023/03/30 04:35:33;;;;;;;102.78;46.10;;;;;;;;;;4768952;30;20052;-78
2023/03/30 04:38:58;;;;;;;89.28;41.40;;;;;;;;;;4800501;29;20055;-78
2023/03/30 04:42:18;;;;;;;66.63;33.90;;;;;;;;;;4746731;30;20055;-78
2023/03/30 04:45:28;;;;;;;116.70;48.75;;;;;;;;;;4801945;29;20058;-77
2023/03/30 04:48:36;;;;;;;39.85;20.20;;;;;;;;;;4800988;29;20416;-78
2023/03/30 04:51:30;;;;;;;38.50;18.45;;;;;;;;;;4800382;29;20412;-78
2023/03/30 04:54:46;;;;;;;30.40;14.93;;;;;;;;;;4800817;29;20062;-78
2023/03/30 04:57:54;;;;;;;39.70;22.23;;;;;;;;;;4807768;29;20051;-78
2023/03/30 05:00:58;;;;;;;33.55;16.75;;;;;;;;;;4801366;29;20420;-78
2023/03/30 05:04:11;;;;;;;34.47;16.23;;;;;;;;;;4800013;29;20062;-77
2023/03/30 05:07:17;;;;;;;;;;;;;;;;;;4799097;29;20050;-78
2023/03/30 05:10:20;;;;;;;37.55;17.58;;;;;;;;;;4800019;29;19924;-78
2023/03/30 05:13:41;;;;;;;51.85;25.50;;;;;;;;;;4711177;30;20061;-77
2023/03/30 05:16:45;;;;;;;58.08;28.40;;;;;;;;;;4800297;29;20043;-78
2023/03/30 05:19:46;;;;;;;52.05;23.77;;;;;;;;;;4796895;29;20487;-78
2023/03/30 05:22:49;;;;;;;48.85;23.05;;;;;;;;;;4796283;29;20541;-78
2023/03/30 05:25:57;;;;;;;46.33;23.10;;;;;;;;;;4799918;29;20059;-80
2023/03/30 05:29:04;;;;;;;57.15;27.98;;;;;;;;;;4796244;29;20055;-79
2023/03/30 05:32:08;;;;;;;51.20;25.75;;;;;;;;;;4798064;29;20059;-80
2023/03/30 05:35:11;;;;;;;86.05;36.00;;;;;;;;;;4797411;29;20046;-79
2023/03/30 05:38:09;;;;;;;81.25;38.55;;;;;;;;;;4796398;29;20058;-79
2023/03/30 05:41:03;;;;;;;60.78;31.25;;;;;;;;;;4798051;29;20047;-80
2023/03/30 05:44:07;;;;;;;42.72;23.55;;;;;;;;;;4794157;29;20054;-80
2023/03/30 05:47:11;;;;;;;49.55;26.58;;;;;;;;;;4798038;29;20043;-80
2023/03/30 05:50:14;;;;;;;36.53;16.00;;;;;;;;;;4796738;29;20484;-79
2023/03/30 05:53:46;;;;;;;27.60;16.52;;;;;;;;;;4800978;29;20367;-79
2023/03/30 05:56:51;;;;;;;41.78;18.65;;;;;;;;;;4800319;29;20050;-79
2023/03/30 06:00:00;;;;;;;41.10;20.88;;;;;;;;;;4806945;29;20047;-79
2023/03/30 06:02:58;;;;;;;42.50;22.00;;;;;;;;;;4800565;29;20047;-79
2023/03/30 06:05:46;;;;;;;41.13;23.27;;;;;;;;;;4800311;29;20497;-80
2023/03/30 06:08:31;;;;;;;31.98;18.48;;;;;;;;;;4798382;29;20571;-78
2023/03/30 06:11:21;;;;;;;28.10;15.82;;;;;;;;;;4801667;29;20050;-79
2023/03/30 06:14:16;;;;;;;32.20;16.40;;;;;;;;;;4799981;29;20723;-80
2023/03/30 06:17:11;;;;;;;40.08;21.45;;;;;;;;;;4799818;29;20058;-81
2023/03/30 06:19:58;;;;;;;38.22;17.98;;;;;;;;;;4800087;29;20484;-81
2023/03/30 06:22:43;;;;;;;32.25;16.13;;;;;;;;;;4798710;29;20055;-80
2023/03/30 06:25:36;;;;;;;28.58;15.40;;;;;;;;;;4796073;29;20059;-79
2023/03/30 06:28:22;;;;;;;31.65;17.55;;;;;;;;;;4798797;29;20042;-81
2023/03/30 06:31:09;;;;;;;29.45;15.35;;;;;;;;;;4791192;29;20054;-81
2023/03/30 06:33:54;;;;;;;31.20;16.92;;;;;;;;;;4800558;29;21745;-80
2023/03/30 06:36:41;;;;;;;34.97;17.50;;;;;;;;;;4799887;29;20046;-81
2023/03/30 06:39:26;;;;;;;28.65;11.90;;;;;;;;;;4799937;29;20047;-80
2023/03/30 06:42:11;;;;;;;22.65;10.75;;;;;;;;;;4799943;29;20420;-79
2023/03/30 06:45:18;;;;;;;22.10;10.40;;;;;;;;;;4798791;29;20059;-80
2023/03/30 06:48:03;;;;;;;21.27;9.35;;;;;;;;;;4786368;29;20047;-80
2023/03/30 06:50:51;;;;;;;23.13;10.88;;;;;;;;;;4800134;29;20055;-80
2023/03/30 06:53:40;;;;;;;47.95;21.60;;;;;;;;;;4799318;29;20054;-81
2023/03/30 06:56:25;;;;;;;29.00;15.05;;;;;;;;;;4798725;29;20055;-81
2023/03/30 06:59:26;;;;;;;23.50;12.13;;;;;;;;;;4788024;29;20043;-80
2023/03/30 07:02:34;;;;;;;24.70;11.50;;;;;;;;;;4800177;29;20046;-82
2023/03/30 07:05:35;;;;;;;23.92;12.27;;;;;;;;;;4799111;29;20052;-80
2023/03/30 07:08:34;;;;;;;23.88;13.38;;;;;;;;;;4799099;29;20043;-81
2023/03/30 07:11:21;;;;;;;22.33;11.60;;;;;;;;;;4799141;29;20401;-82
2023/03/30 07:14:10;;;;;;;62.00;33.35;;;;;;;;;;4798407;29;20055;-81
2023/03/30 07:16:56;;;;;;;37.25;21.08;;;;;;;;;;4798368;29;20047;-81
2023/03/30 07:19:41;;;;;;;22.48;10.02;;;;;;;;;;4791673;29;20051;-79
2023/03/30 07:22:28;;;;;;;18.83;9.95;;;;;;;;;;4798516;29;20055;-79
2023/03/30 07:25:13;;;;;;;22.80;9.02;;;;;;;;;;4795456;29;20067;-80
2023/03/30 07:27:58;;;;;;;14.73;8.50;;;;;;;;;;4798091;29;20050;-78
2023/03/30 07:30:44;;;;;;;23.95;9.15;;;;;;;;;;4799187;29;20481;-80
2023/03/30 07:33:30;;;;;;;15.38;9.13;;;;;;;;;;4790860;29;20046;-81
2023/03/30 07:36:18;;;;;;;18.67;10.00;;;;;;;;;;4799129;29;20054;-80
2023/03/30 07:39:06;;;;;;;20.13;10.27;;;;;;;;;;4800387;29;20480;-81
2023/03/30 07:41:53;;;;;;;17.10;10.75;;;;;;;;;;4797999;29;20047;-81
2023/03/30 07:44:40;;;;;;;13.82;7.85;;;;;;;;;;4798848;29;20051;-81
2023/03/30 07:47:29;;;;;;;18.48;8.27;;;;;;;;;;4800033;29;20051;-80
2023/03/30 07:50:14;;;;;;;16.45;8.30;;;;;;;;;;4798004;29;20059;-79
2023/03/30 07:53:00;;;;;;;14.38;7.78;;;;;;;;;;4798882;29;20050;-79
2023/03/30 07:55:46;;;;;;;14.93;7.03;;;;;;;;;;4797706;29;20050;-79
2023/03/30 07:58:39;;;;;;;13.65;7.22;;;;;;;;;;4798304;29;20054;-80
2023/03/30 08:01:25;;;;;;;10.32;6.28;;;;;;;;;;4797930;29;20058;-80
2023/03/30 08:04:26;;;;;;;11.25;5.38;;;;;;;;;;4799099;29;20050;-79
2023/03/30 08:07:13;;;;;;;11.32;6.00;;;;;;;;;;4797803;29;20408;-80
2023/03/30 08:09:58;;;;;;;11.50;5.70;;;;;;;;;;4798363;29;20047;-80
2023/03/30 08:12:44;;;;;;;11.77;5.82;;;;;;;;;;4798443;29;20500;-82
2023/03/30 08:15:30;;;;;;;11.65;5.65;;;;;;;;;;4798355;29;20492;-81
2023/03/30 08:18:15;;;;;;;15.13;8.88;;;;;;;;;;4800877;29;20080;-82
2023/03/30 08:21:01;;;;;;;10.80;6.15;;;;;;;;;;4798762;29;20046;-81
2023/03/30 08:23:46;;;;;;;14.88;7.07;;;;;;;;;;4797756;29;20055;-79
2023/03/30 08:26:31;;;;;;;14.30;8.07;;;;;;;;;;4807698;29;20050;-83
2023/03/30 08:29:17;;;;;;;14.50;6.82;;;;;;;;;;4807596;29;20054;-83
2023/03/30 08:32:02;;;;;;;12.18;7.68;;;;;;;;;;4807353;29;20516;-81
2023/03/30 08:34:48;;;;;;;13.57;6.70;;;;;;;;;;4807779;29;20046;-82
2023/03/30 08:37:33;;;;;;;11.93;6.28;;;;;;;;;;4807417;29;20055;-80
2023/03/30 08:40:19;;;;;;;14.63;8.57;;;;;;;;;;4807851;29;20054;-81
2023/03/30 08:43:36;;;;;;;14.82;7.30;;;;;;;;;;4806964;29;20426;-82
2023/03/30 08:46:21;;;;;;;11.60;7.30;;;;;;;;;;4807910;29;20399;-81
2023/03/30 08:49:14;;;;;;;11.27;6.95;;;;;;;;;;4807836;29;20510;-81
2023/03/30 08:52:02;;;;;;;10.63;6.30;;;;;;;;;;4807172;29;20047;-82
2023/03/30 08:54:48;;;;;;;18.15;6.20;;;;;;;;;;4800115;29;20059;-82
2023/03/30 08:57:46;;;;;;;16.08;6.80;;;;;;;;;;4807562;29;20404;-82
2023/03/30 09:00:45;;;;;;;8.50;5.13;;;;;;;;;;4807425;29;20046;-81
2023/03/30 09:03:36;;;;;;;10.38;5.57;;;;;;;;;;4796651;29;20729;-81
2023/03/30 09:06:31;;;;;;;11.60;4.97;;;;;;;;;;4809716;29;20050;-82
2023/03/30 09:09:20;;;;;;;9.13;5.30;;;;;;;;;;4796293;29;20055;-81
2023/03/30 09:12:15;;;;;;;17.63;7.38;;;;;;;;;;4808710;29;20405;-81
2023/03/30 09:15:10;;;;;;;7.53;5.10;;;;;;;;;;4796030;29;20054;-81
2023/03/30 09:18:18;;;;;;;11.18;5.40;;;;;;;;;;4808909;29;20055;-79
2023/03/30 09:21:05;;;;;;;7.65;4.25;;;;;;;;;;4809854;29;20078;-83
2023/03/30 09:23:52;;;;;;;7.05;3.83;;;;;;;;;;4801923;29;20059;-83
2023/03/30 09:27:17;;;;;;;9.35;4.63;;;;;;;;;;4799441;29;20404;-84
2023/03/30 09:30:31;;;;;;;12.43;4.35;;;;;;;;;;4797947;29;20050;-82
2023/03/30 09:33:40;;;;;;;10.20;4.38;;;;;;;;;;4818906;29;20047;-82
2023/03/30 09:36:59;;;;;;;5.63;3.22;;;;;;;;;;4813133;29;20054;-80
2023/03/30 09:39:45;;;;;;;6.32;3.38;;;;;;;;;;4799153;29;20142;-80
2023/03/30 09:43:10;;;;;;;5.50;1.90;;;;;;;;;;4812181;29;20059;-78
2023/03/30 09:45:57;;;;;;;3.15;1.92;;;;;;;;;;4788218;29;20050;-80
2023/03/30 09:48:47;;;;;;;5.95;2.75;;;;;;;;;;4799096;29;20043;-80
2023/03/30 09:51:32;;;;;;;5.18;2.70;;;;;;;;;;4812103;29;20047;-82
2023/03/30 09:54:20;;;;;;;14.68;3.80;;;;;;;;;;4812294;29;20051;-79
2023/03/30 09:57:23;;;;;;;7.85;3.28;;;;;;;;;;4812542;29;20051;-79
2023/03/30 10:00:26;;;;;;;9.93;3.60;;;;;;;;;;4805283;29;20042;-77
2023/03/30 10:03:20;;;;;;;6.55;2.90;;;;;;;;;;4811702;29;20420;-78
2023/03/30 10:06:06;;;;;;;;;;;;;;;;;;4812975;29;20493;-79
2023/03/30 10:08:54;;;;;;;8.18;3.13;;;;;;;;;;4798570;29;19925;-78
2023/03/30 10:11:42;;;;;;;5.72;2.47;;;;;;;;;;4810712;29;20042;-80
2023/03/30 10:14:34;;;;;;;6.57;3.00;;;;;;;;;;4809257;29;20098;-79
2023/03/30 10:17:23;;;;;;;9.30;3.40;;;;;;;;;;4796848;29;20054;-80
2023/03/30 10:20:35;;;;;;;5.70;3.10;;;;;;;;;;4809705;29;20047;-79
2023/03/30 10:23:23;;;;;;;4.90;3.05;;;;;;;;;;4796907;29;20058;-80
2023/03/30 10:26:18;;;;;;;5.82;2.58;;;;;;;;;;4809354;29;20050;-80
2023/03/30 10:29:09;;;;;;;5.28;2.70;;;;;;;;;;4809273;29;20050;-80
2023/03/30 10:32:02;;;;;;;9.30;2.63;;;;;;;;;;4809126;29;20507;-81
2023/03/30 10:34:54;;;;;;;9.63;2.70;;;;;;;;;;4809344;29;20046;-81
2023/03/30 10:37:43;;;;;;;5.78;2.72;;;;;;;;;;4811892;29;20520;-80
2023/03/30 10:40:31;;;;;;;5.30;2.67;;;;;;;;;;4809011;29;20058;-79
2023/03/30 10:43:24;;;;;;;5.45;2.92;;;;;;;;;;4809631;29;20042;-80
2023/03/30 10:46:18;;;;;;;6.72;2.60;;;;;;;;;;4810864;29;20062;-80
2023/03/30 10:49:25;;;;;;;5.78;2.63;;;;;;;;;;4804423;29;20485;-80
2023/03/30 10:52:28;;;;;;;10.65;2.53;;;;;;;;;;4811553;29;20062;-80
2023/03/30 10:55:24;;;;;;;6.53;2.35;;;;;;;;;;4811434;29;20099;-79
2023/03/30 10:58:48;;;;;;;7.65;3.10;;;;;;;;;;4811652;29;20062;-79
2023/03/30 11:01:51;;;;;;;7.85;3.05;;;;;;;;;;4810624;29;20047;-80
2023/03/30 11:04:53;;;;;;;6.35;2.75;;;;;;;;;;4811217;29;20047;-81
2023/03/30 11:08:08;;;;;;;6.00;2.42;;;;;;;;;;4810822;29;20047;-80
2023/03/30 11:10:56;;;;;;;7.93;2.50;;;;;;;;;;4815461;29;20038;-80
2023/03/30 11:13:48;;;;;;;7.63;2.65;;;;;;;;;;4808450;29;20059;-79
2023/03/30 11:16:46;;;;;;;8.32;2.20;;;;;;;;;;4809192;29;20050;-80
2023/03/30 11:19:54;;;;;;;7.82;2.80;;;;;;;;;;4808969;29;20050;-80
2023/03/30 11:22:58;;;;;;;5.07;2.50;;;;;;;;;;4808200;29;20047;-80
2023/03/30 11:25:59;;;;;;;7.60;2.92;;;;;;;;;;4802115;29;20809;-80
2023/03/30 11:28:52;;;;;;;5.00;2.70;;;;;;;;;;4801453;29;20420;-80
2023/03/30 11:32:01;;;;;;;8.68;2.75;;;;;;;;;;4801747;29;20396;-81
2023/03/30 11:35:16;;;;;;;8.18;3.85;;;;;;;;;;4798809;29;20042;-80
2023/03/30 11:38:09;;;;;;;5.03;2.00;;;;;;;;;;4797075;29;20055;-80
2023/03/30 11:40:59;;;;;;;4.40;2.05;;;;;;;;;;4801051;29;20788;-81
2023/03/30 11:43:44;;;;;;;5.63;2.28;;;;;;;;;;4801175;29;20055;-80
2023/03/30 11:46:38;;;;;;;6.22;2.00;;;;;;;;;;4799636;29;20489;-81
2023/03/30 11:49:45;;;;;;;4.30;2.00;;;;;;;;;;4800368;29;20051;-81
2023/03/30 11:52:59;;;;;;;6.18;2.22;;;;;;;;;;4801315;29;20271;-81
2023/03/30 11:56:15;;;;;;;6.50;2.97;;;;;;;;;;4801304;29;20054;-80
2023/03/30 11:59:04;;;;;;;5.80;3.55;;;;;;;;;;4778292;29;20046;-78
2023/03/30 12:02:08;;;;;;;6.20;2.45;;;;;;;;;;4800977;29;20066;-79
2023/03/30 12:05:05;;;;;;;4.47;2.40;;;;;;;;;;4801277;29;20050;-79
2023/03/30 12:08:10;;;;;;;5.45;2.28;;;;;;;;;;4800886;29;20063;-80
2023/03/30 12:11:37;;;;;;;5.43;2.20;;;;;;;;;;4800783;29;20405;-81
2023/03/30 12:14:39;;;;;;;6.15;2.63;;;;;;;;;;4806940;29;20408;-78
2023/03/30 12:17:48;;;;;;;6.70;2.72;;;;;;;;;;4793560;29;20055;-78
2023/03/30 12:20:57;;;;;;;12.63;3.30;;;;;;;;;;4801057;29;20059;-80
2023/03/30 12:24:00;;;;;;;8.82;3.03;;;;;;;;;;4800575;29;20062;-80
2023/03/30 12:26:45;;;;;;;6.85;2.42;;;;;;;;;;4799236;29;20392;-79
2023/03/30 12:29:50;;;;;;;4.05;2.20;;;;;;;;;;4800127;29;20039;-80
2023/03/30 12:32:35;;;;;;;6.68;2.78;;;;;;;;;;4797265;29;20055;-80
2023/03/30 12:36:00;;;;;;;9.40;3.70;;;;;;;;;;4801035;29;20051;-80
2023/03/30 12:38:46;;;;;;;5.05;2.65;;;;;;;;;;4781032;29;20046;-79
2023/03/30 12:41:41;;;;;;;3.55;2.10;;;;;;;;;;4793631;29;20058;-79
2023/03/30 12:44:37;;;;;;;3.90;2.05;;;;;;;;;;4799913;29;20055;-80
2023/03/30 12:47:39;;;;;;;4.30;2.20;;;;;;;;;;4800650;29;20063;-81
2023/03/30 12:50:33;;;;;;;7.53;2.10;;;;;;;;;;4800651;29;20050;-79
2023/03/30 12:54:02;;;;;;;5.68;1.92;;;;;;;;;;4800540;29;20054;-80
2023/03/30 12:57:06;;;;;;;6.03;2.22;;;;;;;;;;4789617;29;20050;-78
2023/03/30 13:00:22;;;;;;;2.55;1.80;;;;;;;;;;4800162;29;20051;-79
2023/03/30 13:03:30;;;;;;;4.72;2.28;;;;;;;;;;4800902;29;20054;-79
2023/03/30 13:06:42;;;;;;;3.65;1.90;;;;;;;;;;4800318;29;20046;-81
2023/03/30 13:09:31;;;;;;;9.45;2.35;;;;;;;;;;4798239;29;20126;-79
2023/03/30 13:12:28;;;;;;;6.30;2.35;;;;;;;;;;4800398;29;20059;-78
2023/03/30 13:15:41;;;;;;;5.45;2.10;;;;;;;;;;4799653;29;20046;-81
2023/03/30 13:18:34;;;;;;;5.00;2.45;;;;;;;;;;4800297;29;20500;-79
2023/03/30 13:21:24;;;;;;;7.30;2.70;;;;;;;;;;4799809;29;20047;-80
2023/03/30 13:24:43;;;;;;;14.73;2.95;;;;;;;;;;4793249;29;20043;-79
2023/03/30 13:27:35;;;;;;;8.60;3.42;;;;;;;;;;4785689;29;20047;-79
2023/03/30 13:30:20;;;;;;;10.77;5.35;;;;;;;;;;4783288;30;20043;-80
2023/03/30 13:33:19;;;;;;;9.98;5.05;;;;;;;;;;4782977;30;20051;-80
2023/03/30 13:36:11;;;;;;;8.18;3.75;;;;;;;;;;4782777;29;20489;-81
2023/03/30 13:39:08;;;;;;;8.50;3.70;;;;;;;;;;4783291;29;20051;-82
2023/03/30 13:42:06;;;;;;;5.28;2.25;;;;;;;;;;4779218;29;20059;-80
2023/03/30 13:45:33;;;;;;;7.45;2.13;;;;;;;;;;4781345;29;20485;-80
2023/03/30 13:48:35;;;;;;;5.43;2.63;;;;;;;;;;4730149;30;20056;-81
2023/03/30 13:51:26;;;;;;;8.43;2.80;;;;;;;;;;4782456;30;20055;-80
2023/03/30 13:54:27;;;;;;;3.50;2.30;;;;;;;;;;4780444;30;20497;-82
2023/03/30 13:57:29;;;;;;;3.85;2.35;;;;;;;;;;4781734;30;20485;-80
2023/03/30 14:00:42;;;;;;;2.28;1.60;;;;;;;;;;4772789;30;20048;-79
2023/03/30 14:03:30;;;;;;;5.72;1.90;;;;;;;;;;4785568;30;20493;-78
2023/03/30 14:06:21;;;;;;;5.10;2.75;;;;;;;;;;4780876;30;20047;-79
2023/03/30 14:09:12;;;;;;;3.15;1.92;;;;;;;;;;4784324;30;20059;-79
2023/03/30 14:12:01;;;;;;;6.40;2.00;;;;;;;;;;4785531;30;20056;-80
2023/03/30 14:14:49;;;;;;;5.13;2.85;;;;;;;;;;4770825;30;20051;-79
2023/03/30 14:17:36;;;;;;;4.82;2.40;;;;;;;;;;4783458;30;20043;-80
2023/03/30 14:20:39;;;;;;;4.90;1.83;;;;;;;;;;4776718;29;20831;-82
2023/03/30 14:23:30;;;;;;;5.85;3.35;;;;;;;;;;4782434;30;20047;-78
2023/03/30 14:26:18;;;;;;;8.63;3.65;;;;;;;;;;4796963;29;20477;-81
2023/03/30 14:29:09;;;;;;;8.73;3.00;;;;;;;;;;4802818;29;20051;-82
2023/03/30 14:31:59;;;;;;;6.80;2.72;;;;;;;;;;4802642;29;20054;-79
2023/03/30 14:34:46;;;;;;;7.03;3.42;;;;;;;;;;4800883;29;20055;-79
2023/03/30 14:37:33;;;;;;;5.95;4.03;;;;;;;;;;4801836;29;20055;-80
2023/03/30 14:40:24;;;;;;;7.53;2.33;;;;;;;;;;4802867;29;20047;-82
2023/03/30 14:43:20;;;;;;;6.05;3.17;;;;;;;;;;4802245;29;20433;-81
2023/03/30 14:46:10;;;;;;;5.05;2.88;;;;;;;;;;4794770;29;20063;-80
2023/03/30 14:48:56;;;;;;;7.15;2.38;;;;;;;;;;4801396;29;20416;-79
2023/03/30 14:51:46;;;;;;;6.75;3.92;;;;;;;;;;4805871;29;20054;-79
2023/03/30 14:54:33;;;;;;;15.60;6.75;;;;;;;;;;4806178;29;20505;-78
2023/03/30 14:57:21;;;;;;;7.90;2.92;;;;;;;;;;4805612;29;20055;-79
2023/03/30 15:00:23;;;;;;;11.02;2.78;;;;;;;;;;4805670;29;20055;-78
2023/03/30 15:03:09;;;;;;;5.88;2.60;;;;;;;;;;4804857;29;20492;-80
2023/03/30 15:05:59;;;;;;;6.15;4.22;;;;;;;;;;4804709;29;20054;-78
2023/03/30 15:08:46;;;;;;;8.43;4.28;;;;;;;;;;4802031;29;20054;-81
2023/03/30 15:11:33;;;;;;;8.65;4.45;;;;;;;;;;4801534;29;20440;-79
2023/03/30 15:14:21;;;;;;;4.90;2.75;;;;;;;;;;4802091;29;20047;-79
2023/03/30 15:17:26;;;;;;;6.70;4.13;;;;;;;;;;4801703;29;20042;-81
2023/03/30 15:20:11;;;;;;;11.48;4.28;;;;;;;;;;4801665;29;20058;-81
2023/03/30 15:22:58;;;;;;;11.02;7.00;;;;;;;;;;4800811;29;20043;-80
2023/03/30 15:25:43;;;;;;;8.02;4.43;;;;;;;;;;4802882;29;20059;-79
2023/03/30 15:28:37;;;;;;;10.25;4.88;;;;;;;;;;4801276;29;20046;-82
2023/03/30 15:31:26;;;;;;;7.43;3.20;;;;;;;;;;4808812;29;20066;-82
2023/03/30 15:34:16;;;;;;;6.30;3.97;;;;;;;;;;4807367;29;20055;-82
2023/03/30 15:37:02;;;;;;;9.55;3.63;;;;;;;;;;4808910;29;20055;-81
2023/03/30 15:39:47;;;;;;;8.13;4.70;;;;;;;;;;4802157;29;20404;-79
2023/03/30 15:42:32;;;;;;;10.25;4.32;;;;;;;;;;4797267;29;20054;-79
2023/03/30 15:45:17;;;;;;;4.75;3.08;;;;;;;;;;4810622;29;20078;-78
2023/03/30 15:48:05;;;;;;;7.07;3.28;;;;;;;;;;4810325;29;20050;-79
2023/03/30 15:50:55;;;;;;;7.57;3.13;;;;;;;;;;4809050;29;20051;-81
2023/03/30 15:53:45;;;;;;;7.43;3.55;;;;;;;;;;4807987;29;20043;-80
2023/03/30 15:56:59;;;;;;;11.55;6.05;;;;;;;;;;4809997;29;20047;-80
2023/03/30 15:59:47;;;;;;;10.15;3.88;;;;;;;;;;4807594;29;20063;-81
2023/03/30 16:02:45;;;;;;;6.78;3.72;;;;;;;;;;4810232;29;20054;-79
2023/03/30 16:05:32;;;;;;;4.47;2.85;;;;;;;;;;4809051;29;20679;-79
2023/03/30 16:08:18;;;;;;;5.88;3.38;;;;;;;;;;4808507;29;20051;-80
2023/03/30 16:11:04;;;;;;;13.20;4.25;;;;;;;;;;4809427;29;20047;-81
2023/03/30 16:13:51;;;;;;;8.50;5.05;;;;;;;;;;4808720;29;20043;-79
2023/03/30 16:16:36;;;;;;;8.70;4.82;;;;;;;;;;4809950;29;20043;-80
2023/03/30 16:19:22;;;;;;;170.65;73.40;;;;;;;;;;4809656;29;20059;-78
2023/03/30 16:22:08;;;;;;;328.48;199.15;;;;;;;;;;4809583;29;20457;-82
2023/03/30 16:24:54;;;;;;;162.88;100.68;;;;;;;;;;4806801;29;20043;-79
2023/03/30 16:27:39;;;;;;;69.22;45.97;;;;;;;;;;4793431;29;20055;-78
2023/03/30 16:30:35;;;;;;;43.10;27.85;;;;;;;;;;4799443;29;20047;-78
2023/03/30 16:33:20;;;;;;;40.33;22.73;;;;;;;;;;4800518;29;20047;-80
2023/03/30 16:36:05;;;;;;;;;;;;;;;;;;4800861;29;20051;-79
2023/03/30 16:38:50;;;;;;;56.65;29.35;;;;;;;;;;4799889;29;20363;-81
2023/03/30 16:41:35;;;;;;;116.13;51.50;;;;;;;;;;4793050;29;20066;-81
2023/03/30 16:44:22;;;;;;;35.28;23.83;;;;;;;;;;4800800;29;21708;-79
2023/03/30 16:47:08;;;;;;;29.63;16.67;;;;;;;;;;4800849;29;20050;-80
2023/03/30 16:49:53;;;;;;;309.88;159.63;;;;;;;;;;4798187;29;20055;-81
2023/03/30 16:52:38;;;;;;;242.80;139.70;;;;;;;;;;4800626;29;20047;-79
2023/03/30 16:55:24;;;;;;;89.90;47.60;;;;;;;;;;4800486;29;20094;-80
2023/03/30 16:58:12;;;;;;;59.70;33.10;;;;;;;;;;4799238;29;20050;-80
2023/03/30 17:01:04;;;;;;;59.70;31.15;;;;;;;;;;4800837;29;20051;-81
2023/03/30 17:03:49;;;;;;;56.97;31.02;;;;;;;;;;4800411;29;20042;-80
2023/03/30 17:06:35;;;;;;;48.63;28.77;;;;;;;;;;4800796;29;20066;-81
2023/03/30 17:09:21;;;;;;;48.22;30.83;;;;;;;;;;4800183;29;20070;-80
2023/03/30 17:12:06;;;;;;;36.60;20.10;;;;;;;;;;4799855;29;20060;-80
2023/03/30 17:14:52;;;;;;;36.67;19.73;;;;;;;;;;4799781;29;20047;-80